sensor_id;sensor_type;location;lat;lon;timestamp;temperature;humidity
20479;DHT22;10398;52.490;13.434;2022-10-17T00:00:48;14.60;99.90
20479;DHT22;10398;52.490;13.434;2022-10-17T00:03:14;14.60;99.90
20479;DHT22;10398;52.490;13.434;2022-10-17T00:05:42;14.60;99.90
20479;DHT22;10398;52.490;13.434;2022-10-17T00:08:08;14.70;99.90
20479;DHT22;10398;52.490;13.434;2022-10-17T00:10:34;14.70;99.90
20479;DHT22;10398;52.490;13.434;2022-10-17T00:13:00;14.70;99.90
20479;DHT22;10398;52.490;13.434;2022-10-17T00:15:25;14.70;99.90
20479;DHT22;10398;52.490;13.434;2022-10-17T00:17:51;14.70;99.90
20479;DHT22;10398;52.490;13.434;2022-10-17T00:20:17;14.70;99.90
20479;DHT22;10398;52.490;13.434;2022-10-17T00:22:43;14.70;99.90
20479;DHT22;10398;52.490;13.434;2022-10-17T00:25:08;14.70;99.90
20479;DHT22;10398;52.490;13.434;2022-10-17T00:27:35;14.70;99.90
20479;DHT22;10398;52.490;13.434;2022-10-17T00:30:02;14.70;99.90
20479;DHT22;10398;52.490;13.434;2022-10-17T00:32:27;14.70;99.90
20479;DHT22;10398;52.490;13.434;2022-10-17T00:34:53;14.70;99.90
20479;DHT22;10398;52.490;13.434;2022-10-17T00:37:18;14.70;99.90
20479;DHT22;10398;52.490;13.434;2022-10-17T00:39:44;14.70;99.90
20479;DHT22;10398;52.490;13.434;2022-10-17T00:42:12;14.70;99.90
20479;DHT22;10398;52.490;13.434;2022-10-17T00:47:09;14.70;99.90
20479;DHT22;10398;52.490;13.434;2022-10-17T00:49:39;14.70;99.90
20479;DHT22;10398;52.490;13.434;2022-10-17T00:52:12;14.70;99.90
20479;DHT22;10398;52.490;13.434;2022-10-17T00:54:40;14.70;99.90
20479;DHT22;10398;52.490;13.434;2022-10-17T00:57:07;14.70;99.90
20479;DHT22;10398;52.490;13.434;2022-10-17T00:59:33;14.60;99.90
20479;DHT22;10398;52.490;13.434;2022-10-17T01:02:03;14.60;99.90
20479;DHT22;10398;52.490;13.434;2022-10-17T01:04:29;14.60;99.90
20479;DHT22;10398;52.490;13.434;2022-10-17T01:06:55;14.70;99.90
20479;DHT22;10398;52.490;13.434;2022-10-17T01:09:21;14.70;99.90
20479;DHT22;10398;52.490;13.434;2022-10-17T01:14:46;14.80;99.90
20479;DHT22;10398;52.490;13.434;2022-10-17T01:17:42;14.80;99.90
20479;DHT22;10398;52.490;13.434;2022-10-17T01:20:28;14.70;99.90
20479;DHT22;10398;52.490;13.434;2022-10-17T01:34:17;14.60;99.90
20479;DHT22;10398;52.490;13.434;2022-10-17T01:36:52;14.60;99.90
20479;DHT22;10398;52.490;13.434;2022-10-17T01:42:16;14.50;99.90
20479;DHT22;10398;52.490;13.434;2022-10-17T01:44:52;14.50;99.90
20479;DHT22;10398;52.490;13.434;2022-10-17T01:47:26;14.50;99.90
20479;DHT22;10398;52.490;13.434;2022-10-17T01:49:54;14.50;99.90
20479;DHT22;10398;52.490;13.434;2022-10-17T01:52:25;14.50;99.90
20479;DHT22;10398;52.490;13.434;2022-10-17T01:55:05;14.50;99.90
20479;DHT22;10398;52.490;13.434;2022-10-17T01:57:39;14.40;99.90
20479;DHT22;10398;52.490;13.434;2022-10-17T02:00:10;14.40;99.90
20479;DHT22;10398;52.490;13.434;2022-10-17T02:02:38;14.50;99.90
20479;DHT22;10398;52.490;13.434;2022-10-17T02:05:05;14.50;99.90
20479;DHT22;10398;52.490;13.434;2022-10-17T02:07:32;14.40;99.90
20479;DHT22;10398;52.490;13.434;2022-10-17T02:09:58;14.40;99.90
20479;DHT22;10398;52.490;13.434;2022-10-17T02:18:01;14.30;99.90
20479;DHT22;10398;52.490;13.434;2022-10-17T02:20:39;14.20;99.90
20479;DHT22;10398;52.490;13.434;2022-10-17T02:23:22;14.20;99.90
20479;DHT22;10398;52.490;13.434;2022-10-17T02:26:15;14.20;99.90
20479;DHT22;10398;52.490;13.434;2022-10-17T02:28:55;14.20;99.90
20479;DHT22;10398;52.490;13.434;2022-10-17T02:31:26;14.10;99.90
20479;DHT22;10398;52.490;13.434;2022-10-17T02:33:58;14.10;99.90
20479;DHT22;10398;52.490;13.434;2022-10-17T02:36:29;14.10;99.90
20479;DHT22;10398;52.490;13.434;2022-10-17T02:38:56;14.10;99.90
20479;DHT22;10398;52.490;13.434;2022-10-17T02:41:23;14.10;99.90
20479;DHT22;10398;52.490;13.434;2022-10-17T02:43:50;14.10;99.90
20479;DHT22;10398;52.490;13.434;2022-10-17T02:46:19;14.10;99.90
20479;DHT22;10398;52.490;13.434;2022-10-17T02:48:54;14.10;99.90
20479;DHT22;10398;52.490;13.434;2022-10-17T02:51:28;14.10;99.90
20479;DHT22;10398;52.490;13.434;2022-10-17T02:54:04;14.10;99.90
20479;DHT22;10398;52.490;13.434;2022-10-17T02:56:34;14.10;99.90
20479;DHT22;10398;52.490;13.434;2022-10-17T02:59:02;14.10;99.90
20479;DHT22;10398;52.490;13.434;2022-10-17T03:01:30;14.20;99.90
20479;DHT22;10398;52.490;13.434;2022-10-17T03:04:07;14.20;99.90
20479;DHT22;10398;52.490;13.434;2022-10-17T03:06:33;14.20;99.90
20479;DHT22;10398;52.490;13.434;2022-10-17T03:08:59;14.10;99.90
20479;DHT22;10398;52.490;13.434;2022-10-17T03:11:24;14.10;99.90
20479;DHT22;10398;52.490;13.434;2022-10-17T03:13:50;14.10;99.90
20479;DHT22;10398;52.490;13.434;2022-10-17T03:16:15;14.10;99.90
20479;DHT22;10398;52.490;13.434;2022-10-17T03:18:41;14.10;99.90
20479;DHT22;10398;52.490;13.434;2022-10-17T03:21:06;14.10;99.90
20479;DHT22;10398;52.490;13.434;2022-10-17T03:23:32;14.10;99.90
20479;DHT22;10398;52.490;13.434;2022-10-17T03:25:57;14.00;99.90
20479;DHT22;10398;52.490;13.434;2022-10-17T03:28:27;14.00;99.90
20479;DHT22;10398;52.490;13.434;2022-10-17T03:30:52;14.00;99.90
20479;DHT22;10398;52.490;13.434;2022-10-17T03:33:18;14.10;99.90
20479;DHT22;10398;52.490;13.434;2022-10-17T03:35:43;14.10;99.90
20479;DHT22;10398;52.490;13.434;2022-10-17T03:38:09;14.10;99.90
20479;DHT22;10398;52.490;13.434;2022-10-17T03:40:34;14.10;99.90
20479;DHT22;10398;52.490;13.434;2022-10-17T03:43:00;14.20;99.90
20479;DHT22;10398;52.490;13.434;2022-10-17T03:45:26;14.20;99.90
20479;DHT22;10398;52.490;13.434;2022-10-17T03:47:51;14.20;99.90
20479;DHT22;10398;52.490;13.434;2022-10-17T03:50:17;14.20;99.90
20479;DHT22;10398;52.490;13.434;2022-10-17T03:52:46;14.20;99.90
20479;DHT22;10398;52.490;13.434;2022-10-17T03:55:13;14.20;99.90
20479;DHT22;10398;52.490;13.434;2022-10-17T03:57:38;14.20;99.90
20479;DHT22;10398;52.490;13.434;2022-10-17T04:00:04;14.10;99.90
20479;DHT22;10398;52.490;13.434;2022-10-17T04:02:30;14.10;99.90
20479;DHT22;10398;52.490;13.434;2022-10-17T04:04:56;14.20;99.90
20479;DHT22;10398;52.490;13.434;2022-10-17T04:07:21;14.20;99.90
20479;DHT22;10398;52.490;13.434;2022-10-17T04:09:47;14.20;99.90
20479;DHT22;10398;52.490;13.434;2022-10-17T04:12:13;14.20;99.90
20479;DHT22;10398;52.490;13.434;2022-10-17T04:14:38;14.20;99.90
20479;DHT22;10398;52.490;13.434;2022-10-17T04:17:04;14.10;99.90
20479;DHT22;10398;52.490;13.434;2022-10-17T04:19:29;14.10;99.90
20479;DHT22;10398;52.490;13.434;2022-10-17T04:21:55;14.10;99.90
20479;DHT22;10398;52.490;13.434;2022-10-17T04:24:20;14.10;99.90
20479;DHT22;10398;52.490;13.434;2022-10-17T04:26:48;14.10;99.90
20479;DHT22;10398;52.490;13.434;2022-10-17T04:29:14;14.10;99.90
20479;DHT22;10398;52.490;13.434;2022-10-17T04:31:40;14.10;99.90
20479;DHT22;10398;52.490;13.434;2022-10-17T04:34:05;14.10;99.90
20479;DHT22;10398;52.490;13.434;2022-10-17T04:36:31;14.10;99.90
20479;DHT22;10398;52.490;13.434;2022-10-17T04:38:57;14.10;99.90
20479;DHT22;10398;52.490;13.434;2022-10-17T04:41:24;14.10;99.90
20479;DHT22;10398;52.490;13.434;2022-10-17T04:43:50;14.00;99.90
20479;DHT22;10398;52.490;13.434;2022-10-17T04:46:15;14.10;99.90
20479;DHT22;10398;52.490;13.434;2022-10-17T04:48:41;14.00;99.90
20479;DHT22;10398;52.490;13.434;2022-10-17T04:51:12;14.00;99.90
20479;DHT22;10398;52.490;13.434;2022-10-17T04:53:39;14.00;99.90
20479;DHT22;10398;52.490;13.434;2022-10-17T04:58:36;14.00;99.90
20479;DHT22;10398;52.490;13.434;2022-10-17T05:01:06;14.00;99.90
20479;DHT22;10398;52.490;13.434;2022-10-17T05:03:33;14.00;99.90
20479;DHT22;10398;52.490;13.434;2022-10-17T05:06:03;14.00;99.90
20479;DHT22;10398;52.490;13.434;2022-10-17T05:08:28;14.10;99.90
20479;DHT22;10398;52.490;13.434;2022-10-17T05:10:54;14.10;99.90
20479;DHT22;10398;52.490;13.434;2022-10-17T05:13:19;14.10;99.90
20479;DHT22;10398;52.490;13.434;2022-10-17T05:15:45;14.10;99.90
20479;DHT22;10398;52.490;13.434;2022-10-17T05:18:10;14.00;99.90
20479;DHT22;10398;52.490;13.434;2022-10-17T05:20:36;14.00;99.90
20479;DHT22;10398;52.490;13.434;2022-10-17T05:23:02;14.00;99.90
20479;DHT22;10398;52.490;13.434;2022-10-17T05:25:28;14.00;99.90
20479;DHT22;10398;52.490;13.434;2022-10-17T05:27:53;14.00;99.90
20479;DHT22;10398;52.490;13.434;2022-10-17T05:30:19;14.00;99.90
20479;DHT22;10398;52.490;13.434;2022-10-17T05:32:45;14.00;99.90
20479;DHT22;10398;52.490;13.434;2022-10-17T05:35:11;13.90;99.90
20479;DHT22;10398;52.490;13.434;2022-10-17T05:37:36;14.00;99.90
20479;DHT22;10398;52.490;13.434;2022-10-17T05:40:02;13.90;99.90
20479;DHT22;10398;52.490;13.434;2022-10-17T05:42:28;13.90;99.90
20479;DHT22;10398;52.490;13.434;2022-10-17T05:44:53;13.90;99.90
20479;DHT22;10398;52.490;13.434;2022-10-17T05:47:19;13.90;99.90
20479;DHT22;10398;52.490;13.434;2022-10-17T05:49:45;13.90;99.90
20479;DHT22;10398;52.490;13.434;2022-10-17T05:52:11;13.90;99.90
20479;DHT22;10398;52.490;13.434;2022-10-17T05:54:37;13.90;99.90
20479;DHT22;10398;52.490;13.434;2022-10-17T05:57:02;13.90;99.90
20479;DHT22;10398;52.490;13.434;2022-10-17T05:59:28;13.90;99.90
20479;DHT22;10398;52.490;13.434;2022-10-17T06:01:54;13.90;99.90
20479;DHT22;10398;52.490;13.434;2022-10-17T06:04:20;13.90;99.90
20479;DHT22;10398;52.490;13.434;2022-10-17T06:06:45;13.90;99.90
20479;DHT22;10398;52.490;13.434;2022-10-17T06:09:11;14.00;99.90
20479;DHT22;10398;52.490;13.434;2022-10-17T06:11:37;14.00;99.90
20479;DHT22;10398;52.490;13.434;2022-10-17T06:14:03;14.00;99.90
20479;DHT22;10398;52.490;13.434;2022-10-17T06:16:29;14.00;99.90
20479;DHT22;10398;52.490;13.434;2022-10-17T06:18:54;14.10;99.90
20479;DHT22;10398;52.490;13.434;2022-10-17T06:21:23;14.10;99.90
20479;DHT22;10398;52.490;13.434;2022-10-17T06:23:48;14.10;99.90
20479;DHT22;10398;52.490;13.434;2022-10-17T06:26:14;14.10;99.90
20479;DHT22;10398;52.490;13.434;2022-10-17T06:28:40;14.10;99.90
20479;DHT22;10398;52.490;13.434;2022-10-17T06:31:13;14.10;99.90
20479;DHT22;10398;52.490;13.434;2022-10-17T06:33:40;14.20;99.90
20479;DHT22;10398;52.490;13.434;2022-10-17T06:36:07;14.20;99.90
20479;DHT22;10398;52.490;13.434;2022-10-17T06:38:33;14.20;99.90
20479;DHT22;10398;52.490;13.434;2022-10-17T06:41:07;14.30;99.90
20479;DHT22;10398;52.490;13.434;2022-10-17T06:43:37;14.30;99.90
20479;DHT22;10398;52.490;13.434;2022-10-17T06:46:03;14.40;99.90
20479;DHT22;10398;52.490;13.434;2022-10-17T06:48:29;14.40;99.90
20479;DHT22;10398;52.490;13.434;2022-10-17T06:50:59;14.40;99.90
20479;DHT22;10398;52.490;13.434;2022-10-17T06:53:29;14.50;99.90
20479;DHT22;10398;52.490;13.434;2022-10-17T06:55:55;14.50;99.90
20479;DHT22;10398;52.490;13.434;2022-10-17T06:58:26;14.60;99.90
20479;DHT22;10398;52.490;13.434;2022-10-17T07:01:00;14.60;99.90
20479;DHT22;10398;52.490;13.434;2022-10-17T07:03:26;14.70;99.90
20479;DHT22;10398;52.490;13.434;2022-10-17T07:05:53;14.70;99.90
20479;DHT22;10398;52.490;13.434;2022-10-17T07:08:20;14.70;99.90
20479;DHT22;10398;52.490;13.434;2022-10-17T07:10:46;14.70;99.90
20479;DHT22;10398;52.490;13.434;2022-10-17T07:13:11;14.70;99.90
20479;DHT22;10398;52.490;13.434;2022-10-17T07:15:37;14.80;99.90
20479;DHT22;10398;52.490;13.434;2022-10-17T07:18:03;14.90;99.90
20479;DHT22;10398;52.490;13.434;2022-10-17T07:20:29;14.90;99.90
20479;DHT22;10398;52.490;13.434;2022-10-17T07:22:55;15.00;99.90
20479;DHT22;10398;52.490;13.434;2022-10-17T07:25:21;15.00;99.90
20479;DHT22;10398;52.490;13.434;2022-10-17T07:27:48;15.10;99.90
20479;DHT22;10398;52.490;13.434;2022-10-17T07:30:14;15.10;99.90
20479;DHT22;10398;52.490;13.434;2022-10-17T07:32:41;15.20;99.90
20479;DHT22;10398;52.490;13.434;2022-10-17T07:35:07;15.20;99.90
20479;DHT22;10398;52.490;13.434;2022-10-17T07:37:33;15.30;99.90
20479;DHT22;10398;52.490;13.434;2022-10-17T07:39:58;15.30;99.90
20479;DHT22;10398;52.490;13.434;2022-10-17T07:42:24;15.40;99.90
20479;DHT22;10398;52.490;13.434;2022-10-17T07:44:49;15.50;99.90
20479;DHT22;10398;52.490;13.434;2022-10-17T07:47:15;15.50;99.90
20479;DHT22;10398;52.490;13.434;2022-10-17T07:49:41;15.60;99.90
20479;DHT22;10398;52.490;13.434;2022-10-17T07:52:12;15.70;99.90
20479;DHT22;10398;52.490;13.434;2022-10-17T07:54:39;15.80;99.90
20479;DHT22;10398;52.490;13.434;2022-10-17T07:57:05;16.00;99.90
20479;DHT22;10398;52.490;13.434;2022-10-17T07:59:32;16.10;99.90
20479;DHT22;10398;52.490;13.434;2022-10-17T08:01:58;16.30;99.90
20479;DHT22;10398;52.490;13.434;2022-10-17T08:04:24;16.30;99.90
20479;DHT22;10398;52.490;13.434;2022-10-17T08:06:50;16.50;99.90
20479;DHT22;10398;52.490;13.434;2022-10-17T08:09:16;16.60;99.90
20479;DHT22;10398;52.490;13.434;2022-10-17T08:11:41;16.70;99.90
20479;DHT22;10398;52.490;13.434;2022-10-17T08:14:11;16.80;99.90
20479;DHT22;10398;52.490;13.434;2022-10-17T08:16:37;16.90;99.90
20479;DHT22;10398;52.490;13.434;2022-10-17T08:19:03;17.00;99.90
20479;DHT22;10398;52.490;13.434;2022-10-17T08:21:29;17.20;99.90
20479;DHT22;10398;52.490;13.434;2022-10-17T08:23:55;17.30;99.90
20479;DHT22;10398;52.490;13.434;2022-10-17T08:26:21;17.40;99.90
20479;DHT22;10398;52.490;13.434;2022-10-17T08:28:47;17.50;99.90
20479;DHT22;10398;52.490;13.434;2022-10-17T08:31:18;17.60;99.90
20479;DHT22;10398;52.490;13.434;2022-10-17T08:33:44;17.80;99.90
20479;DHT22;10398;52.490;13.434;2022-10-17T08:36:13;17.80;99.90
20479;DHT22;10398;52.490;13.434;2022-10-17T08:38:39;17.80;99.90
20479;DHT22;10398;52.490;13.434;2022-10-17T08:43:59;18.00;99.90
20479;DHT22;10398;52.490;13.434;2022-10-17T08:46:33;18.30;99.90
20479;DHT22;10398;52.490;13.434;2022-10-17T08:49:01;18.40;99.90
20479;DHT22;10398;52.490;13.434;2022-10-17T08:51:31;18.50;99.90
20479;DHT22;10398;52.490;13.434;2022-10-17T08:54:12;18.60;99.90
20479;DHT22;10398;52.490;13.434;2022-10-17T08:56:44;18.70;99.90
20479;DHT22;10398;52.490;13.434;2022-10-17T08:59:17;18.80;99.90
20479;DHT22;10398;52.490;13.434;2022-10-17T09:07:43;19.50;99.90
20479;DHT22;10398;52.490;13.434;2022-10-17T09:16:47;20.00;99.90
20479;DHT22;10398;52.490;13.434;2022-10-17T09:19:36;20.30;99.90
20479;DHT22;10398;52.490;13.434;2022-10-17T09:22:17;20.60;99.90
20479;DHT22;10398;52.490;13.434;2022-10-17T09:24:50;20.70;99.90
20479;DHT22;10398;52.490;13.434;2022-10-17T09:27:22;20.80;99.90
20479;DHT22;10398;52.490;13.434;2022-10-17T09:29:54;20.90;99.90
20479;DHT22;10398;52.490;13.434;2022-10-17T09:32:24;21.10;99.90
20479;DHT22;10398;52.490;13.434;2022-10-17T09:34:51;21.30;99.90
20479;DHT22;10398;52.490;13.434;2022-10-17T09:37:17;21.50;99.90
20479;DHT22;10398;52.490;13.434;2022-10-17T09:39:44;21.60;99.90
20479;DHT22;10398;52.490;13.434;2022-10-17T09:42:15;21.60;99.90
20479;DHT22;10398;52.490;13.434;2022-10-17T09:45:10;21.80;99.90
20479;DHT22;10398;52.490;13.434;2022-10-17T09:48:13;22.10;99.90
20479;DHT22;10398;52.490;13.434;2022-10-17T09:50:43;22.20;99.90
20479;DHT22;10398;52.490;13.434;2022-10-17T09:53:14;22.30;99.90
20479;DHT22;10398;52.490;13.434;2022-10-17T09:55:45;22.30;99.90
20479;DHT22;10398;52.490;13.434;2022-10-17T09:58:12;22.40;99.90
20479;DHT22;10398;52.490;13.434;2022-10-17T10:00:41;22.60;99.90
20479;DHT22;10398;52.490;13.434;2022-10-17T10:03:25;22.80;99.90
20479;DHT22;10398;52.490;13.434;2022-10-17T10:08:47;23.40;99.90
20479;DHT22;10398;52.490;13.434;2022-10-17T10:11:16;23.60;99.90
20479;DHT22;10398;52.490;13.434;2022-10-17T10:13:44;23.80;99.90
20479;DHT22;10398;52.490;13.434;2022-10-17T10:18:41;24.10;99.90
20479;DHT22;10398;52.490;13.434;2022-10-17T10:23:33;24.40;99.90
20479;DHT22;10398;52.490;13.434;2022-10-17T10:26:03;24.30;99.90
20479;DHT22;10398;52.490;13.434;2022-10-17T10:28:34;24.20;99.90
20479;DHT22;10398;52.490;13.434;2022-10-17T10:31:05;24.20;99.90
20479;DHT22;10398;52.490;13.434;2022-10-17T10:33:35;24.10;99.90
20479;DHT22;10398;52.490;13.434;2022-10-17T10:36:04;24.00;99.90
20479;DHT22;10398;52.490;13.434;2022-10-17T10:38:31;24.10;99.90
20479;DHT22;10398;52.490;13.434;2022-10-17T10:41:06;24.20;99.90
20479;DHT22;10398;52.490;13.434;2022-10-17T10:46:24;24.50;99.90
20479;DHT22;10398;52.490;13.434;2022-10-17T10:48:56;24.70;99.90
20479;DHT22;10398;52.490;13.434;2022-10-17T10:51:40;24.90;99.90
20479;DHT22;10398;52.490;13.434;2022-10-17T10:54:16;25.10;99.90
20479;DHT22;10398;52.490;13.434;2022-10-17T10:56:45;25.30;99.90
20479;DHT22;10398;52.490;13.434;2022-10-17T11:02:09;25.30;99.90
20479;DHT22;10398;52.490;13.434;2022-10-17T11:04:43;25.30;99.90
20479;DHT22;10398;52.490;13.434;2022-10-17T11:09:47;25.40;99.90
20479;DHT22;10398;52.490;13.434;2022-10-17T11:12:20;25.30;99.90
20479;DHT22;10398;52.490;13.434;2022-10-17T11:14:59;25.20;99.90
20479;DHT22;10398;52.490;13.434;2022-10-17T11:17:41;25.10;99.90
20479;DHT22;10398;52.490;13.434;2022-10-17T11:20:27;25.10;99.90
20479;DHT22;10398;52.490;13.434;2022-10-17T11:23:39;25.20;99.90
20479;DHT22;10398;52.490;13.434;2022-10-17T11:26:12;25.20;99.90
20479;DHT22;10398;52.490;13.434;2022-10-17T11:28:40;25.20;99.90
20479;DHT22;10398;52.490;13.434;2022-10-17T11:31:09;25.20;99.90
20479;DHT22;10398;52.490;13.434;2022-10-17T11:33:59;25.20;99.90
20479;DHT22;10398;52.490;13.434;2022-10-17T11:36:29;25.20;99.90
20479;DHT22;10398;52.490;13.434;2022-10-17T11:39:00;25.30;99.90
20479;DHT22;10398;52.490;13.434;2022-10-17T11:41:49;25.30;99.90
20479;DHT22;10398;52.490;13.434;2022-10-17T11:44:40;25.30;99.90
20479;DHT22;10398;52.490;13.434;2022-10-17T11:47:31;25.30;99.90
20479;DHT22;10398;52.490;13.434;2022-10-17T11:52:52;25.40;99.90
20479;DHT22;10398;52.490;13.434;2022-10-17T11:55:22;25.50;99.90
20479;DHT22;10398;52.490;13.434;2022-10-17T11:58:00;25.60;99.90
20479;DHT22;10398;52.490;13.434;2022-10-17T12:06:44;25.70;99.90
20479;DHT22;10398;52.490;13.434;2022-10-17T12:09:41;25.90;99.90
20479;DHT22;10398;52.490;13.434;2022-10-17T12:12:23;26.10;99.90
20479;DHT22;10398;52.490;13.434;2022-10-17T12:14:50;26.20;99.90
20479;DHT22;10398;52.490;13.434;2022-10-17T12:17:31;26.10;99.90
20479;DHT22;10398;52.490;13.434;2022-10-17T12:22:51;26.30;99.90
20479;DHT22;10398;52.490;13.434;2022-10-17T12:25:57;26.60;99.90
20479;DHT22;10398;52.490;13.434;2022-10-17T12:30:57;27.00;99.90
20479;DHT22;10398;52.490;13.434;2022-10-17T12:33:37;27.20;99.90
20479;DHT22;10398;52.490;13.434;2022-10-17T12:41:13;27.70;99.90
20479;DHT22;10398;52.490;13.434;2022-10-17T12:43:45;27.50;99.90
20479;DHT22;10398;52.490;13.434;2022-10-17T12:46:11;27.30;99.90
20479;DHT22;10398;52.490;13.434;2022-10-17T12:53:55;27.30;99.90
20479;DHT22;10398;52.490;13.434;2022-10-17T12:58:59;26.90;99.90
20479;DHT22;10398;52.490;13.434;2022-10-17T13:01:29;27.10;99.90
20479;DHT22;10398;52.490;13.434;2022-10-17T13:03:55;27.20;99.90
20479;DHT22;10398;52.490;13.434;2022-10-17T13:06:24;27.20;99.90
20479;DHT22;10398;52.490;13.434;2022-10-17T13:09:07;27.20;99.90
20479;DHT22;10398;52.490;13.434;2022-10-17T13:11:34;27.00;99.90
20479;DHT22;10398;52.490;13.434;2022-10-17T13:14:02;26.70;99.90
20479;DHT22;10398;52.490;13.434;2022-10-17T13:16:36;26.40;99.90
20479;DHT22;10398;52.490;13.434;2022-10-17T13:19:17;26.20;99.90
20479;DHT22;10398;52.490;13.434;2022-10-17T13:26:45;26.10;99.90
20479;DHT22;10398;52.490;13.434;2022-10-17T13:29:13;25.80;99.90
20479;DHT22;10398;52.490;13.434;2022-10-17T13:31:43;25.70;99.90
20479;DHT22;10398;52.490;13.434;2022-10-17T13:34:18;25.60;99.90
20479;DHT22;10398;52.490;13.434;2022-10-17T13:36:47;25.50;99.90
20479;DHT22;10398;52.490;13.434;2022-10-17T13:39:16;25.30;99.90
20479;DHT22;10398;52.490;13.434;2022-10-17T13:41:42;25.20;99.90
20479;DHT22;10398;52.490;13.434;2022-10-17T13:44:19;25.20;99.90
20479;DHT22;10398;52.490;13.434;2022-10-17T13:46:46;25.20;99.90
20479;DHT22;10398;52.490;13.434;2022-10-17T13:49:35;25.20;99.90
20479;DHT22;10398;52.490;13.434;2022-10-17T13:52:04;25.10;99.90
20479;DHT22;10398;52.490;13.434;2022-10-17T13:59:45;25.20;99.90
20479;DHT22;10398;52.490;13.434;2022-10-17T14:02:16;25.20;99.90
20479;DHT22;10398;52.490;13.434;2022-10-17T14:04:43;25.30;99.90
20479;DHT22;10398;52.490;13.434;2022-10-17T14:07:22;25.30;99.90
20479;DHT22;10398;52.490;13.434;2022-10-17T14:09:49;25.30;99.90
20479;DHT22;10398;52.490;13.434;2022-10-17T14:12:15;25.40;99.90
20479;DHT22;10398;52.490;13.434;2022-10-17T14:14:47;25.40;99.90
20479;DHT22;10398;52.490;13.434;2022-10-17T14:17:21;25.30;99.90
20479;DHT22;10398;52.490;13.434;2022-10-17T14:19:53;25.20;99.90
20479;DHT22;10398;52.490;13.434;2022-10-17T14:24:45;25.00;99.90
20479;DHT22;10398;52.490;13.434;2022-10-17T14:27:30;25.00;99.90
20479;DHT22;10398;52.490;13.434;2022-10-17T14:29:58;24.90;99.90
20479;DHT22;10398;52.490;13.434;2022-10-17T14:32:30;24.90;99.90
20479;DHT22;10398;52.490;13.434;2022-10-17T14:34:58;24.90;99.90
20479;DHT22;10398;52.490;13.434;2022-10-17T14:39:53;24.80;99.90
20479;DHT22;10398;52.490;13.434;2022-10-17T14:42:22;24.60;99.90
20479;DHT22;10398;52.490;13.434;2022-10-17T14:44:49;24.50;99.90
20479;DHT22;10398;52.490;13.434;2022-10-17T14:47:20;24.40;99.90
20479;DHT22;10398;52.490;13.434;2022-10-17T14:50:00;24.30;99.90
20479;DHT22;10398;52.490;13.434;2022-10-17T14:52:28;24.20;99.90
20479;DHT22;10398;52.490;13.434;2022-10-17T14:54:55;24.10;99.90
20479;DHT22;10398;52.490;13.434;2022-10-17T14:57:27;24.10;99.90
20479;DHT22;10398;52.490;13.434;2022-10-17T14:59:57;23.90;99.90
20479;DHT22;10398;52.490;13.434;2022-10-17T15:02:27;23.80;99.90
20479;DHT22;10398;52.490;13.434;2022-10-17T15:04:53;23.80;99.90
20479;DHT22;10398;52.490;13.434;2022-10-17T15:07:20;23.70;99.90
20479;DHT22;10398;52.490;13.434;2022-10-17T15:09:48;23.70;99.90
20479;DHT22;10398;52.490;13.434;2022-10-17T15:12:16;23.60;99.90
20479;DHT22;10398;52.490;13.434;2022-10-17T15:14:43;23.50;99.90
20479;DHT22;10398;52.490;13.434;2022-10-17T15:17:12;23.50;99.90
20479;DHT22;10398;52.490;13.434;2022-10-17T15:19:38;23.40;99.90
20479;DHT22;10398;52.490;13.434;2022-10-17T15:22:04;23.40;99.90
20479;DHT22;10398;52.490;13.434;2022-10-17T15:24:30;23.30;99.90
20479;DHT22;10398;52.490;13.434;2022-10-17T15:26:55;23.20;99.90
20479;DHT22;10398;52.490;13.434;2022-10-17T15:29:21;23.20;99.90
20479;DHT22;10398;52.490;13.434;2022-10-17T15:31:46;23.10;99.90
20479;DHT22;10398;52.490;13.434;2022-10-17T15:34:12;23.10;99.90
20479;DHT22;10398;52.490;13.434;2022-10-17T15:36:45;23.10;99.90
20479;DHT22;10398;52.490;13.434;2022-10-17T15:39:12;23.00;99.90
20479;DHT22;10398;52.490;13.434;2022-10-17T15:41:38;23.00;99.90
20479;DHT22;10398;52.490;13.434;2022-10-17T15:44:03;23.00;99.90
20479;DHT22;10398;52.490;13.434;2022-10-17T15:46:32;22.90;99.90
20479;DHT22;10398;52.490;13.434;2022-10-17T15:49:04;22.90;99.90
20479;DHT22;10398;52.490;13.434;2022-10-17T15:51:31;22.80;99.90
20479;DHT22;10398;52.490;13.434;2022-10-17T15:53:57;22.80;99.90
20479;DHT22;10398;52.490;13.434;2022-10-17T15:56:28;22.80;99.90
20479;DHT22;10398;52.490;13.434;2022-10-17T15:58:56;22.70;99.90
20479;DHT22;10398;52.490;13.434;2022-10-17T16:01:28;22.70;99.90
20479;DHT22;10398;52.490;13.434;2022-10-17T16:03:54;22.70;99.90
20479;DHT22;10398;52.490;13.434;2022-10-17T16:06:21;22.60;99.90
20479;DHT22;10398;52.490;13.434;2022-10-17T16:08:47;22.60;99.90
20479;DHT22;10398;52.490;13.434;2022-10-17T16:11:25;22.60;99.90
20479;DHT22;10398;52.490;13.434;2022-10-17T16:13:54;22.50;99.90
20479;DHT22;10398;52.490;13.434;2022-10-17T16:16:20;22.40;99.90
20479;DHT22;10398;52.490;13.434;2022-10-17T16:18:49;22.40;99.90
20479;DHT22;10398;52.490;13.434;2022-10-17T16:21:15;22.40;99.90
20479;DHT22;10398;52.490;13.434;2022-10-17T16:23:41;22.30;99.90
20479;DHT22;10398;52.490;13.434;2022-10-17T16:26:07;22.30;99.90
20479;DHT22;10398;52.490;13.434;2022-10-17T16:28:34;22.20;99.90
20479;DHT22;10398;52.490;13.434;2022-10-17T16:31:00;22.20;99.90
20479;DHT22;10398;52.490;13.434;2022-10-17T16:33:25;22.20;99.90
20479;DHT22;10398;52.490;13.434;2022-10-17T16:35:51;22.10;99.90
20479;DHT22;10398;52.490;13.434;2022-10-17T16:38:17;22.10;99.90
20479;DHT22;10398;52.490;13.434;2022-10-17T16:40:43;22.10;99.90
20479;DHT22;10398;52.490;13.434;2022-10-17T16:43:11;22.00;99.90
20479;DHT22;10398;52.490;13.434;2022-10-17T16:45:37;22.00;99.90
20479;DHT22;10398;52.490;13.434;2022-10-17T16:48:05;22.00;99.90
20479;DHT22;10398;52.490;13.434;2022-10-17T16:50:31;21.90;99.90
20479;DHT22;10398;52.490;13.434;2022-10-17T16:53:00;21.90;99.90
20479;DHT22;10398;52.490;13.434;2022-10-17T16:55:26;21.80;99.90
20479;DHT22;10398;52.490;13.434;2022-10-17T16:57:51;21.80;99.90
20479;DHT22;10398;52.490;13.434;2022-10-17T17:00:17;21.80;99.90
20479;DHT22;10398;52.490;13.434;2022-10-17T17:02:44;21.80;99.90
20479;DHT22;10398;52.490;13.434;2022-10-17T17:05:11;21.80;99.90
20479;DHT22;10398;52.490;13.434;2022-10-17T17:07:37;21.70;99.90
20479;DHT22;10398;52.490;13.434;2022-10-17T17:10:03;21.70;99.90